< < Back
Terminal Aerodrome Forecast


Current Version              Previous Versions:   1  2  3  4  5  6  7  8  9  

Terminal Aerodrome Forecast

029
FTUS44 KBMX 282055 AAB
TAFBHM
TAF AMD
KBHM 282055Z 2821/2918 33006KT P6SM VCSH SCT050 BKN100
     FM290100 02005KT P6SM BKN250
     FM290600 VRB03KT P6SM SCT250=

Latest METAR

984
SAUS70 KWBC 290200 RRE
MTRBHM
METAR KBHM 290153Z 00000KT 10SM BKN200 29/22 A3001 RMK AO2 SLP152
T02890222


USA.gov is the U.S. government's official web portal to all federal, state and local government web resources and services.